VUELOS DE BAJO NIVEL DESDE SUPERFICIE HASTA 24,000 PIES.

VALIDO DESDE 251200Z...…………………….…………………HASTA 260000Z
 

.SANTO DOMINGO FIR...PORT-AU-PRINCE FIR...NRN BARRANQUILLA FIR...NRN PANAMA FIR...

KINGSTON FIR S 18N/E 80W...SCT025 SCT060. OCNL BKN220. TOP ABV FL240. ISOL SHRA. WND ESE-E 20-25KT. OTLK...VFR SHRA WND.ELSW...SCT020-SKC. WTRS...WND ESE OCNL 20-25KT. OTLK...VFR WND.

 

5,000 FT.

10,000 FT.

18,000 FT.

24,000 FT.

MDSD

1205KT+21ºC

0820KT+10ºC

0210KT-06ºC

0310KT-17ºC

MTPP

1205KT+21ºC

0820KT+10ºC

0210KT-08ºC

0310KT-17ºC

TJSJ

0815KT+17ºC

0420KT+11ºC

0215KT-06ºC

0315KT-18ºC

 

 

 

 

 

TERMINALES

FTDR31 MDSD 251000Z
TAF 

TAF MDPP 251000Z 2512/2612 00000KT 9999 FEW018 SCT070 BECMG 2513/2517 09008KT =

TAF MDST 251000Z 2512/2612 12008KT 9999 BKN018 SCT300=

TAF MDPC 251000Z 2512/2612 12010KT 9999 FEW018 BECMG 2600/2602 00000KT=

TAF MDBH 251000Z 2512/2612 09014KT 9999 FEW020CB FEW022 BKN300 BECMG 2513/2515 13016KT=

TAF MDJB 251000Z 2512/2612 13006KT 9999 SCT020 BKN300 BECMG 2516/2518 18014KT=

TAF MDSD 251000Z 2512/2612 12012KT 9999 SCT020 BKN300=

TAF MDLR 251000Z 2512/2612 13012KT 9999 SCT022 BKN300=

TAF MDCY 251000Z 2512/2612 VRB04KT 9999 SCT020 BKN300 BECMG 2514/2516 13010KT FEW020=

KMIA 250911Z 2509/2606 19006KT P6SM FEW020 SCT190 BKN250 FM251200 25015G25KT P6SM VCSH SCT035 BKN060 OVC090 FM260000 29005KT P6SM FEW030 SCT060 BKN120

KJFK 250835Z 2509/2612 07012G20KT 6SM -RA BR SCT008 BKN010 FM251100 08016G23KT 2SM -RA BR OVC006 FM251700 09014KT 2SM -RA BR OVC004 FM252100 08009KT 2SM -SHRA BR OVC004 FM260300 VRB05KT 1SM -SHRA BR OVC004

TJSJ 250525Z 2506/2606 09004KT P6SM FEW050 FM251300 08015KT P6SM FEW030 FEW060 FM252300 10008KT P6SM FEW060

MUHA 250500Z 2506/2606 18002KT 8000 SCT030 BECMG 2512/2514 19012KT

TAF MUGM 2507/2607 01006KT 9999 FEW030 SCT070 SCT250 QNH2993INS BECMG 2515/2517 13014KT 9999 FEW035 SCT100 BKN250 QNH2992INS FM252200 15008KT 9999 FEW035 SCT060 BKN250 QNH2993INS 
FM260300 36005KT 9999 FEW035 SCT060 SCT250 QNH2995INS T24/2511Z T32/2517Z FN00077

TAF TNCC 251000Z 2512/2612 11015G27KT 9999 SCT020

MCJP 250515Z 2506/2606 12016KT 9999 FEW022 BECMG 2514/2516 14026KT SCT018 FEW020CB 
 BECMG 2500/2502 12016KT FEW022

PREPARADO POR: HATY MOTA ACOSTA 25 DE MAYO DEL 2017-